Terminal Aerodrome Forecast
Issued by NWS Wilmington, OH

Home | Current Version | Previous Version | Text Only | Print | Product List | Glossary On
Versions: 1 2 3 4 5 6 7 8 9 10 11 12 13 14 15 16
000
FTUS41 KILN 130542
TAFCMH
TAF
KCMH 130542Z 1306/1406 28008KT P6SM BKN022 OVC045
     FM130900 26007KT P6SM FEW080
     FM131300 19009KT P6SM OVC080
     FM131800 19011KT P6SM BKN120
     FM132300 20011KT P6SM VCSH OVC050
     FM140100 23012G20KT P6SM -SHSN OVC040
     FM140400 27014G22KT P6SM VCSH OVC022=

USA.gov is the U.S. government's official web portal to all federal, state and local government web resources and services.